KTUL/TUL METAR and TAF weather

Enter ICAO airport designator
Station Type Date Time Source
KTUL METAR 2020/09/19 20:53 UTC NOAA

KTUL 192053Z 08008KT 10SM CLR 26/13 A3016 RMK AO2 SLP207 T02610133 58025


Station Type Date Time Source
KTUL Decoded METAR 2020/09/19 20:53 UTC NOAA

TULSA INTERNATIONAL AIRPORT, OK, United States (KTUL) 36-12N 95-53W 207M
Sep 19, 2020 - 04:53 PM EDT / 2020.09.19 2053 UTC
Wind: from the E (080 degrees) at 9 MPH (8 KT):0
Visibility: 10 mile(s):0
Sky conditions: clear
Temperature: 79.0 F (26.1 C)
Dew Point: 55.9 F (13.3 C)
Relative Humidity: 45%
Pressure (altimeter): 30.16 in. Hg (1021 hPa)
Pressure tendency: 0.07 inches (2.5 hPa) lower than three hours ago
ob: KTUL 192053Z 08008KT 10SM CLR 26/13 A3016 RMK AO2 SLP207 T02610133 58025
cycle: 21

Station Type Date Time Source
KTUL TAF 2020/09/19 18:22 UTC NOAA

TAF KTUL 191720Z 1918/2018 18007KT P6SM SKC
FM192100 13006KT P6SM SKC

Example: see airport list